Terminal Aerodrome Forecast
Issued by NWS Pueblo, CO

Home | Current Version | Previous Version | Text Only | Print | Product List | Glossary On
Versions: 1 2 3 4 5 6 7 8 9 10 11 12 13 14 15 16 17
040
FTUS45 KPUB 221729
TAFALS
TAF
KALS 221729Z 2218/2318 18010KT P6SM FEW050 SCT120
      TEMPO 2218/2221 18012G22KT
     FM222100 21020G30KT P6SM VCTS SCT080CB BKN130
     FM230200 20013KT P6SM VCTS SCT060CB BKN110
     FM230400 19012KT P6SM SCT060 SCT110
     FM231100 VRB06KT P6SM SCT100=

USA.gov is the U.S. government's official web portal to all federal, state and local government web resources and services.